Wild Boar Gully, Santa Catalina Island Weather observations

Data are for 10 minute period ending at time listed.
 Day   Time   Solar   Ave.   Ave.  Ave.  Vector    Max.   Stn.    Total
  of    of     Rad.   Air    Rel.  Wind   Wind     Wind   Baro.  Precip.
Year   Day            Temp.  Hum.  Speed  Dir.     Gust   Pres.         
2014   (PST)   W/m2    F      %     mph   deg.      mph    mb.     in.  
------------------------------------------------------------------------
 298    0:30    0.0    64   78.6    12     28.3    17.3    999.0   0.00  
 298    0:40    0.0    64   76.0    10     29.2    14.9    999.0   0.00  
 298    0:50    0.0    65   64.9     4     66.6     7.8    999.0   0.00  
 298    1:00    0.0    67   48.2     4     65.6     5.4    999.0   0.00  
 298    1:10    0.0    68   42.2     3     79.4     6.6    999.0   0.00  
 298    1:20    0.0    71   35.5     6     84.1     8.4    999.0   0.00  
 298    1:30    0.0    71   39.0     6    114.9     8.4    999.0   0.00  
 298    1:40    0.0    66   59.7     4     63.8     7.8    999.0   0.00  
 298    1:50    0.0    67   54.3     7     66.5    10.2    999.0   0.00  
 298    2:00    0.0    68   57.5     3     90.8     9.0    999.0   0.00  
 298    2:10    0.0    66   62.6     3    275.4     6.0    999.0   0.00  
 298    2:20    0.0    66   64.0     2    233.7     4.2    999.0   0.00  
 298    2:30    0.0    65   62.6     2     36.0     3.6    999.0   0.00  
 298    2:40    0.0    65   62.2     8     36.5    13.1    999.0   0.00  
 298    2:50    0.0    67   59.4     5     55.9    10.8    999.0   0.00  
 298    3:00    0.0    68   60.8     5    108.3     6.6    999.0   0.00  
 298    3:10    0.0    68   56.7     6    105.7     8.4    999.0   0.00  
 298    3:20    0.0    68   59.9     6    103.0     7.8    999.0   0.00  
 298    3:30    0.0    67   63.5     3    216.6     7.2    999.0   0.00  
 298    3:40    0.0    67   66.6     3     56.8     4.8    999.0   0.00  
 298    3:50    0.0    67   65.7     4     87.1     6.0    999.0   0.00  
 298    4:00    0.0    68   61.2     2    175.4     4.2    999.0   0.00  
 298    4:10    0.0    68   60.5     2     65.4     3.6    999.0   0.00  
 298    4:20    0.0    68   60.1     4    100.5     4.8    999.0   0.00  
 298    4:30    0.0    69   61.0     4    102.9     5.4    999.0   0.00  
 298    4:40    0.0    68   61.9     3    139.1     4.8    999.0   0.00  
 298    4:50    0.0    68   65.0     4     78.3     7.2    999.0   0.00  
 298    5:00    0.0    68   68.3     5     45.9     8.4    999.0   0.00  
 298    5:10    0.0    68   69.2     3    100.0     3.6    999.0   0.00  
 298    5:20    0.0    68   70.0     5    286.7    10.2    999.0   0.00  
 298    5:30    0.0    67   71.0     4    355.5     6.6    999.0   0.00  
 298    5:40    0.0    67   71.6     4     30.4     7.8    999.0   0.00  
 298    5:50    0.0    67   73.2    10     32.5    16.1    999.0   0.00  
 298    6:00    0.0    66   74.7     9     39.5    12.5    999.0   0.00  
 298    6:10    2.0    67   72.1     3     41.7     7.8    999.0   0.00  
 298    6:20    6.0    66   75.2     8     31.0    13.7    999.0   0.00  
 298    6:30    6.0    66   77.2     5     31.0     9.6    999.0   0.00  
 298    6:40    9.0    66   76.6     6     32.6    11.9    999.0   0.00  
 298    6:50   26.0    66   75.6     3     99.3     6.6    999.0   0.00  
 298    7:00   61.0    67   73.9     3    289.6     5.4    999.0   0.00  
 298    7:10   66.0    67   73.7     7     33.7    13.1    999.0   0.00  
 298    7:20  122.0    68   71.7     6     36.8    12.5    999.0   0.00  
 298    7:30  162.0    70   65.5     4     52.0     9.0    999.0   0.00  
 298    7:40  122.0    72   65.6     2    150.4     4.2    999.0   0.00  
 298    7:50  196.0    70   69.0     4    204.2     7.8    999.0   0.00  
 298    8:00  121.0    69   72.9     4    277.9     8.4    999.0   0.00  
 298    8:10  232.0    70   72.5     2     69.3     5.4    999.0   0.00  
 298    8:20  303.0    72   66.9     3     98.3     6.6    999.0   0.00  
 298    8:30  211.0    72   66.3     4    111.9     7.2    999.0   0.00  
 298    8:40  219.0    71   69.7     4    217.0     7.8    999.0   0.00  
 298    8:50  364.0    71   72.1     2    209.8     4.8    999.0   0.00  
 298    9:00  377.0    72   71.0     5    231.0     7.8    999.0   0.00  
 298    9:10  397.0    70   74.2     6    262.7    10.8    999.0   0.00  
 298    9:20  414.0    71   73.7     5    230.2     7.8    999.0   0.00  
 298    9:30  433.0    71   72.7     6    268.8    10.2    999.0   0.00  
 298    9:40  452.0    72   69.7     4    244.2     6.0    999.0   0.00  
 298    9:50  467.0    74   66.6     7    269.7    10.8    999.0   0.00  
 298   10:00  483.0    75   61.3     7    275.6    11.3    999.0   0.00  
 298   10:10  499.0    77   48.6     6    269.4     9.6    999.0   0.00  
 298   10:20  511.0    78   46.7     5    251.9     8.4    999.0   0.00  
 298   10:30  523.0    79   45.3     5    215.7     6.6    999.0   0.00  
 298   10:40  533.0    78   44.7     6    275.4     7.8    999.0   0.00  
 298   10:50  540.0    77   52.8     8    274.8    10.8    999.0   0.00  
 298   11:00  546.0    76   63.1    10    273.3    14.9    999.0   0.00  
 298   11:10  548.0    75   64.8    11    274.0    18.5    999.0   0.00  
 298   11:20  552.0    73   68.2    13    280.7    19.7    999.0   0.00  
 298   11:30  553.0    72   71.2    15    274.6    22.1    999.0   0.00  
 298   11:40  553.0    71   73.0    15    276.5    21.5    999.0   0.00  
 298   11:50  554.0    72   70.3    13    281.1    20.9    999.0   0.00  
 298   12:00  554.0    73   67.8    12    273.2    17.3    999.0   0.00  
 298   12:10  549.0    73   68.2    12    267.9    16.7    999.0   0.00  
 298   12:20  544.0    73   68.4    10    240.9    16.1    999.0   0.00  
 298   12:30  541.0    73   69.1    11    262.5    16.1    999.0   0.00  
 298   12:40  533.0    73   65.6    13    267.3    17.9    999.0   0.00  
 298   12:50  524.0    74   65.0    12    270.2    17.9    999.0   0.00  
 298   13:00  514.0    75   62.4    11    271.8    17.9    999.0   0.00  
 298   13:10  504.0    75   59.7    14    272.1    17.3    999.0   0.00  
 298   13:20  493.0    75   55.9    14    277.3    19.1    999.0   0.00  
 298   13:30  476.0    75   54.2    13    293.7    19.1    999.0   0.00  
 298   13:40  460.0    74   60.8    15    282.7    22.1    999.0   0.00  
 298   13:50  443.0    72   68.0    17    283.9    23.9    999.0   0.00  
 298   14:00  427.0    72   66.7    17    299.5    23.9    999.0   0.00  
 298   14:10  408.0    72   67.7    20    303.5    25.6    999.0   0.00  
 298   14:20  390.0    71   66.2    20    305.4    24.5    999.0   0.00  
 298   14:30  370.0    72   65.7    19    299.4    24.5    999.0   0.00  
 298   14:40  349.0    72   65.6    17    301.9    24.5    999.0   0.00  
 298   14:50  327.0    73   65.2    14    325.4    22.7    999.0   0.00  
 298   15:00  306.0    74   63.4    14    329.0    20.9    999.0   0.00  
 298   15:10  283.0    74   58.7    14    335.4    20.3    999.0   0.00  
 298   15:20  259.0    74   64.4    17    302.8    23.3    999.0   0.00  
 298   15:30  235.0    71   69.9    19    302.4    24.5    999.0   0.00  
 298   15:40  211.0    72   69.0    14    320.4    20.9    999.0   0.00  
 298   15:50  186.0    71   69.0    17    306.5    25.0    999.0   0.00  
 298   16:00  163.0    70   71.1    17    310.3    25.6    999.0   0.00  
 298   16:10  141.0    70   73.1    15    312.9    22.1    999.0   0.00  
 298   16:20  111.0    69   74.7    15    314.2    22.1    999.0   0.00  
 298   16:30   81.0    69   76.4    16    308.3    22.1    999.0   0.00  
 298   16:40   64.0    69   77.5    16    307.8    22.7    999.0   0.00  
 298   16:50   38.0    68   78.1    18    305.4    26.2    999.0   0.00  
 298   17:00   21.0    68   78.6    20    305.2    24.5    999.0   0.00  
 298   17:10    8.0    68   79.4    22    307.0    26.8    999.0   0.00  
 298   17:20    2.0    67   80.4    21    303.4    26.2    999.0   0.00  
 298   17:30    0.0    67   80.8    19    305.8    24.5    999.0   0.00  
 298   17:40    0.0    67   81.0    16    310.9    21.5    999.0   0.00  
 298   17:50    0.0    67   81.1    15    306.6    19.7    999.0   0.00  
 298   18:00    0.0    67   81.1    14    313.5    17.9    999.0   0.00  
 298   18:10    0.0    67   81.0    14    314.4    18.5    999.0   0.00  
 298   18:20    0.0    67   81.1    14    314.0    19.1    999.0   0.00  
 298   18:30    0.0    67   81.2    14    316.6    19.1    999.0   0.00  
 298   18:40    0.0    67   81.1    16    314.4    20.3    999.0   0.00  
 298   18:50    0.0    67   81.1    13    309.7    17.3    999.0   0.00  
 298   19:00    0.0    67   81.2    14    313.4    20.9    999.0   0.00  
 298   19:10    0.0    67   81.1    15    314.9    20.3    999.0   0.00  
 298   19:20    0.0    67   81.1    15    315.3    20.3    999.0   0.00  
 298   19:30    0.0    67   81.3    14    315.2    19.1    999.0   0.00  
 298   19:40    0.0    67   81.6    14    315.4    20.3    999.0   0.00  
 298   19:50    0.0    67   81.7    14    311.1    20.3    999.0   0.00  
 298   20:00    0.0    67   81.4    12    315.9    17.3    999.0   0.00  
 298   20:10    0.0    67   81.0    12    314.9    17.3    999.0   0.00  
 298   20:20    0.0    67   80.9    12    315.4    17.3    999.0   0.00  
 298   20:30    0.0    67   81.3    11    314.6    17.3    999.0   0.00  
 298   20:40    0.0    67   81.8    11    313.7    17.9    999.0   0.00  
 298   20:50    0.0    67   82.0    11    316.9    18.5    999.0   0.00  
 298   21:00    0.0    67   81.5    10    317.5    17.9    999.0   0.00  
 298   21:10    0.0    67   81.1    11    329.7    16.7    999.0   0.00  
 298   21:20    0.0    67   80.6    10    319.4    15.5    999.0   0.00  
 298   21:30    0.0    67   80.8     9    316.0    13.7    999.0   0.00  
 298   21:40    0.0    67   81.6    10    306.1    13.1    999.0   0.00  
 298   21:50    0.0    67   82.1    12    307.9    17.3    999.0   0.00  
 298   22:00    0.0    67   82.3    11    324.1    17.3    999.0   0.00  
 298   22:10    0.0    67   82.5    12    340.9    17.9    999.0   0.00  
 298   22:20    0.0    66   82.6    14    350.7    19.1    999.0   0.00  
 298   22:30    0.0    66   82.5    12    352.6    18.5    999.0   0.00  
 298   22:40    0.0    66   82.4    11    357.5    13.7    999.0   0.00  
 298   22:50    0.0    66   82.6    10      1.0    14.9    999.0   0.00  
 298   23:00    0.0    66   82.7    10      4.7    14.3    999.0   0.00  
 298   23:10    0.0    66   82.6    10      9.9    13.1    999.0   0.00  
 298   23:20    0.0    66   82.4     8      8.7    11.9    999.0   0.00  
 298   23:30    0.0    66   81.9     5    345.5     8.4    999.0   0.00  
 298   23:40    0.0    67   78.7     6    305.6    10.8    999.0   0.00  
 298   23:50    0.0    68   73.9     8    332.8    13.1    999.0   0.00  
 299    0:00    0.0    69   72.2     6    319.8    10.8    999.0   0.00  
 299    0:10    0.0    69   71.2     8    344.7    13.1    999.0   0.00  
 299    0:20    0.0    68   75.0     9      1.9    13.1    999.0   0.00  

Return to Wild Boar Gully graphs page.


Western Regional Climate Center,wrcc@dri.edu